Main page
METAR-TAF:

METAR-TAF

Airports :

Bahawalpur, Pakistan

Bahawalpur Airport

latitude: 29-20-53N, longitude: 71-43-04E, elevation: 119 m

METAR: missing

Time: 01:37 (20:37 UTC)

Forecast

The report was made 4 hours and 7 minutes ago, at 16:30 UTC
Forecast valid from 30 at 18 UTC to 01 at 12 UTC
Wind 10 kt from the Southwest
Visibility: 4000 m
Few clouds at a height of 12000 ft
haze
Probability 30% :
Temporary
from 01 at 03 UTC to 01 at 07 UTC
Wind 20 kt from the North
Visibility: 2000 m
Blowing dust

TAF: OPBW 301630Z 3018/0112 23010KT 4000 HZ FEW120 TN22/0100Z TX39/0110Z PROB30 TEMPO 0103/0107 36020KT 2000 BLDU NSC

Weather observations and forecasts of more than 4000 airports (METAR and TAF reports).

The available stations are represented by yellow and red dots on the map.

Hover mouse over dot to see the name of the station.

Then click to see weather observations and forecasts.

To change the map : click on the green buttons with a black cross to zoom in, on the green button with a dash to zoom out, or on the green arrows for adjacent maps.


METAR-TAF: